Time;durP1;ratioP1;P1;durP2;ratioP2;P2;SDS_P1;SDS_P2;PMS_P1;PMS_P2;Temp;Humidity;BMP_temperature;BMP_pressure;BME280_temperature;BME280_humidity;BME280_pressure;Samples;Min_cycle;Max_cycle;Signal;HPM_P1;HPM_P2
2022/07/21 00:01:16;;;;;;;18.42;14.50;;;22.10;99.90;;;;;;5053528;28;20044;-46
2022/07/21 00:03:41;;;;;;;19.60;13.43;;;22.10;99.90;;;;;;5053616;28;20051;-46
2022/07/21 00:06:07;;;;;;;15.80;13.30;;;22.10;99.90;;;;;;5053829;28;20031;-47
2022/07/21 00:08:33;;;;;;;15.00;13.40;;;22.10;99.90;;;;;;5053399;28;20037;-47
2022/07/21 00:10:58;;;;;;;17.30;13.88;;;22.00;99.90;;;;;;5053960;28;20485;-48
2022/07/21 00:13:24;;;;;;;16.80;12.52;;;22.10;99.90;;;;;;5052508;28;20103;-47
2022/07/21 00:15:50;;;;;;;16.83;14.05;;;22.00;99.90;;;;;;5054885;28;20029;-48
2022/07/21 00:18:16;;;;;;;16.60;13.15;;;22.10;99.90;;;;;;5053057;28;20499;-50
2022/07/21 00:20:42;;;;;;;20.83;13.90;;;22.10;99.90;;;;;;5052513;28;20116;-50
2022/07/21 00:23:08;;;;;;;18.73;13.95;;;22.00;99.90;;;;;;5053738;28;20486;-49
2022/07/21 00:25:33;;;;;;;17.33;13.52;;;21.90;99.90;;;;;;5053961;28;20104;-52
2022/07/21 00:27:59;;;;;;;20.02;14.82;;;21.90;99.90;;;;;;5053027;28;20416;-48
2022/07/21 00:30:24;;;;;;;22.75;15.35;;;21.90;99.90;;;;;;5053570;28;20406;-47
2022/07/21 00:32:49;;;;;;;15.40;13.80;;;21.80;99.90;;;;;;5053729;28;20044;-52
2022/07/21 00:35:15;;;;;;;19.10;14.48;;;21.70;99.90;;;;;;5053379;28;20041;-48
2022/07/21 00:37:41;;;;;;;16.55;14.90;;;21.70;99.90;;;;;;5052657;28;20489;-45
2022/07/21 00:40:10;;;;;;;19.85;14.70;;;21.70;99.90;;;;;;5053455;28;20017;-46
2022/07/21 00:42:36;;;;;;;18.65;14.98;;;21.70;99.90;;;;;;5053170;28;20048;-48
2022/07/21 00:45:05;;;;;;;16.33;13.95;;;21.60;99.90;;;;;;5053401;28;20025;-47
2022/07/21 00:47:31;;;;;;;17.35;15.52;;;21.60;99.90;;;;;;5052298;28;20028;-50
2022/07/21 00:49:58;;;;;;;18.95;14.82;;;21.50;99.90;;;;;;5053221;28;20025;-47
2022/07/21 00:52:25;;;;;;;16.98;15.20;;;21.50;99.90;;;;;;5053130;28;20079;-49
2022/07/21 00:54:51;;;;;;;15.95;14.25;;;21.50;99.90;;;;;;5053226;28;20320;-46
2022/07/21 00:57:16;;;;;;;19.55;14.05;;;21.50;99.90;;;;;;5052378;28;20463;-48
2022/07/21 00:59:43;;;;;;;19.52;14.23;;;21.60;99.90;;;;;;5053056;28;20025;-48
2022/07/21 01:02:09;;;;;;;20.05;14.40;;;21.60;99.90;;;;;;5052703;28;20029;-44
2022/07/21 01:04:35;;;;;;;14.90;13.35;;;21.60;99.90;;;;;;5052932;28;20555;-50
2022/07/21 01:07:02;;;;;;;16.90;14.93;;;21.60;99.90;;;;;;5052201;28;20025;-52
2022/07/21 01:09:28;;;;;;;20.85;14.80;;;21.60;99.90;;;;;;5052997;28;20091;-49
2022/07/21 01:11:53;;;;;;;15.82;14.32;;;21.60;99.90;;;;;;5052493;28;20470;-48
2022/07/21 01:14:19;;;;;;;20.17;14.52;;;21.60;99.90;;;;;;5051643;28;20041;-49
2022/07/21 01:16:45;;;;;;;18.08;15.32;;;21.60;99.90;;;;;;5052333;28;20158;-44
2022/07/21 01:19:11;;;;;;;16.63;13.82;;;21.60;99.90;;;;;;5052388;28;20032;-51
2022/07/21 01:21:40;;;;;;;14.88;12.85;;;21.50;99.90;;;;;;5052702;28;20040;-47
2022/07/21 01:24:07;;;;;;;18.52;14.35;;;21.50;99.90;;;;;;5052738;28;20025;-46
2022/07/21 01:26:48;;;;;;;23.20;15.27;;;21.50;99.90;;;;;;5052376;28;20382;-46
2022/07/21 01:29:14;;;;;;;16.23;13.68;;;21.50;99.90;;;;;;5052301;28;20048;-48
2022/07/21 01:31:41;;;;;;;14.48;12.93;;;21.40;99.90;;;;;;5052208;28;20381;-46
2022/07/21 01:34:08;;;;;;;15.23;13.45;;;21.30;99.90;;;;;;5052378;28;20025;-45
2022/07/21 01:36:34;;;;;;;18.23;13.68;;;21.20;99.90;;;;;;5052353;28;20052;-47
2022/07/21 01:41:44;;;;;;;16.05;13.85;;;21.10;99.90;;;;;;5052511;28;20082;-50
2022/07/21 01:44:12;;;;;;;17.95;13.45;;;21.10;99.90;;;;;;5051917;28;20116;-47
2022/07/21 01:46:46;;;;;;;15.07;12.88;;;21.20;99.90;;;;;;5052070;28;20025;-45
2022/07/21 01:49:13;;;;;;;15.63;13.60;;;21.10;99.90;;;;;;5052017;28;20025;-50
2022/07/21 01:51:39;;;;;;;15.73;12.93;;;21.10;99.90;;;;;;5052019;28;20029;-48
2022/07/21 01:54:06;;;;;;;19.60;12.82;;;21.10;99.90;;;;;;5051829;28;20033;-51
2022/07/21 01:56:33;;;;;;;19.15;13.52;;;21.20;99.90;;;;;;5051871;28;20481;-50
2022/07/21 01:58:59;;;;;;;17.48;15.82;;;21.20;99.90;;;;;;5051173;28;20064;-46
2022/07/21 02:01:26;;;;;;;19.77;16.80;;;21.20;99.90;;;;;;5052112;28;20056;-46
2022/07/21 02:03:53;;;;;;;19.65;15.77;;;21.20;99.90;;;;;;5052034;28;20619;-50
2022/07/21 02:06:19;;;;;;;20.80;16.05;;;21.10;99.90;;;;;;5051797;28;20039;-47
2022/07/21 02:08:45;;;;;;;16.80;14.85;;;21.00;99.90;;;;;;5050669;28;20025;-45
2022/07/21 02:11:12;;;;;;;16.50;14.43;;;21.00;99.90;;;;;;5051822;28;20044;-47
2022/07/21 02:13:39;;;;;;;16.17;14.57;;;21.00;99.90;;;;;;5051295;28;20508;-46
2022/07/21 02:16:05;;;;;;;16.80;14.65;;;21.10;99.90;;;;;;5051763;28;20036;-50
2022/07/21 02:18:31;;;;;;;16.67;13.93;;;21.10;99.90;;;;;;5050810;28;20079;-52
2022/07/21 02:20:56;;;;;;;15.15;13.57;;;21.10;99.90;;;;;;5051590;28;20029;-49
2022/07/21 02:23:23;;;;;;;13.52;12.05;;;21.10;99.90;;;;;;5051346;28;20033;-48
2022/07/21 02:25:49;;;;;;;16.48;12.20;;;21.20;99.90;;;;;;5051689;28;20025;-48
2022/07/21 02:28:15;;;;;;;14.55;11.68;;;21.20;99.90;;;;;;5050574;28;20104;-49
2022/07/21 02:30:41;;;;;;;22.88;11.90;;;21.20;99.90;;;;;;5051510;28;20100;-51
2022/07/21 02:33:07;;;;;;;12.98;10.15;;;21.20;99.90;;;;;;5051676;28;20051;-46
2022/07/21 02:35:33;;;;;;;12.48;11.18;;;21.10;99.90;;;;;;5051415;28;20029;-52
2022/07/21 02:37:58;;;;;;;14.88;11.70;;;21.00;99.90;;;;;;5050611;28;20024;-49
2022/07/21 02:40:24;;;;;;;16.08;12.10;;;21.10;99.90;;;;;;5051429;28;20033;-47
2022/07/21 02:42:49;;;;;;;18.58;12.88;;;21.10;99.90;;;;;;5051104;28;20033;-46
2022/07/21 02:45:15;;;;;;;13.60;12.15;;;21.10;99.90;;;;;;5053928;28;20029;-48
2022/07/21 02:48:01;;;;;;;15.65;12.02;;;21.10;99.90;;;;;;5036641;28;20028;-48
2022/07/21 02:50:30;;;;;;;13.30;11.70;;;21.10;99.90;;;;;;5055454;28;20028;-52
2022/07/21 02:52:57;;;;;;;18.00;12.10;;;21.10;99.90;;;;;;5055398;28;20102;-49
2022/07/21 02:55:23;;;;;;;15.35;11.68;;;21.30;99.90;;;;;;5055478;28;20399;-48
2022/07/21 02:57:49;;;;;;;20.98;12.63;;;21.30;99.90;;;;;;5054608;28;20032;-50
2022/07/21 03:00:15;;;;;;;12.50;11.23;;;21.20;99.90;;;;;;5055141;28;20115;-50
2022/07/21 03:02:41;;;;;;;12.85;11.52;;;21.20;99.90;;;;;;5054811;28;20078;-49
2022/07/21 03:05:07;;;;;;;11.73;10.50;;;21.20;99.90;;;;;;5055123;28;20021;-47
2022/07/21 03:07:32;;;;;;;11.85;10.65;;;21.20;99.90;;;;;;5054266;28;20102;-45
2022/07/21 03:09:58;;;;;;;13.45;10.15;;;21.20;99.90;;;;;;5055173;28;20014;-49
2022/07/21 03:12:23;;;;;;;13.38;8.75;;;21.20;99.90;;;;;;5053240;28;20055;-47
2022/07/21 03:14:49;;;;;;;9.65;8.40;;;21.20;99.90;;;;;;5055029;28;20048;-48
2022/07/21 03:17:14;;;;;;;8.00;7.30;;;21.20;99.90;;;;;;5055208;28;20068;-51
2022/07/21 03:19:40;;;;;;;11.38;7.57;;;21.20;99.90;;;;;;5055304;28;20029;-45
2022/07/21 03:22:05;;;;;;;8.65;7.85;;;21.20;99.90;;;;;;5054714;28;20419;-48
2022/07/21 03:24:31;;;;;;;8.30;7.50;;;21.20;99.90;;;;;;5054764;28;20055;-48
2022/07/21 03:26:57;;;;;;;8.80;7.40;;;21.20;99.90;;;;;;5053962;28;20021;-49
2022/07/21 03:29:23;;;;;;;9.40;6.90;;;21.20;99.90;;;;;;5054658;28;20026;-49
2022/07/21 03:31:48;;;;;;;7.97;6.80;;;21.10;99.90;;;;;;5054651;28;20038;-48
2022/07/21 03:34:14;;;;;;;7.68;6.97;;;21.10;99.90;;;;;;5054385;28;20033;-50
2022/07/21 03:36:39;;;;;;;9.75;7.28;;;21.10;99.90;;;;;;5054960;28;20424;-49
2022/07/21 03:39:05;;;;;;;8.75;7.85;;;21.10;99.90;;;;;;5053708;28;20087;-46
2022/07/21 03:41:31;;;;;;;8.10;7.30;;;21.00;99.90;;;;;;5054317;28;20037;-46
2022/07/21 03:43:56;;;;;;;8.55;7.07;;;21.00;99.90;;;;;;5054124;28;20032;-50
2022/07/21 03:46:22;;;;;;;9.15;6.90;;;21.00;99.90;;;;;;5054456;28;20100;-47
2022/07/21 03:48:48;;;;;;;10.10;8.07;;;21.00;99.90;;;;;;5053860;28;20059;-49
2022/07/21 03:51:13;;;;;;;9.02;7.05;;;20.90;99.90;;;;;;5054257;28;20057;-51
2022/07/21 03:53:39;;;;;;;9.00;6.88;;;20.90;99.90;;;;;;5053935;28;20075;-46
2022/07/21 03:56:05;;;;;;;12.07;8.05;;;20.80;99.90;;;;;;5053861;28;20037;-46
2022/07/21 03:58:30;;;;;;;9.15;7.30;;;20.80;99.90;;;;;;5053425;28;20035;-46
2022/07/21 04:00:56;;;;;;;7.72;6.93;;;20.80;99.90;;;;;;5054382;28;20032;-46
2022/07/21 04:03:21;;;;;;;13.82;7.18;;;20.80;99.90;;;;;;5053718;28;20079;-48
2022/07/21 04:05:47;;;;;;;7.82;6.78;;;20.70;99.90;;;;;;5054093;28;20025;-48
2022/07/21 04:08:13;;;;;;;7.15;6.45;;;20.70;99.90;;;;;;5052978;28;20025;-46
2022/07/21 04:10:41;;;;;;;6.50;5.90;;;20.70;99.90;;;;;;5053949;28;20104;-47
2022/07/21 04:13:09;;;;;;;9.02;6.45;;;20.80;99.90;;;;;;5052811;28;20055;-50
2022/07/21 04:15:35;;;;;;;9.75;7.00;;;20.70;99.90;;;;;;5053738;28;20041;-45
2022/07/21 04:18:02;;;;;;;7.13;6.45;;;20.70;99.90;;;;;;5053029;28;20481;-45
2022/07/21 04:20:27;;;;;;;6.80;6.20;;;20.70;99.90;;;;;;5035783;28;20029;-49
2022/07/21 04:22:53;;;;;;;6.70;6.07;;;20.70;99.90;;;;;;5053366;28;20052;-47
2022/07/21 04:25:19;;;;;;;7.65;6.28;;;20.80;99.90;;;;;;5053626;28;20021;-46
2022/07/21 04:27:47;;;;;;;7.65;6.90;;;20.80;99.90;;;;;;5052851;28;20025;-44
2022/07/21 04:30:15;;;;;;;6.75;5.50;;;20.80;99.90;;;;;;5053387;28;20102;-50
2022/07/21 04:32:42;;;;;;;7.60;5.70;;;20.80;99.90;;;;;;5053331;28;20017;-45
2022/07/21 04:35:08;;;;;;;10.57;6.70;;;20.80;99.90;;;;;;5053203;28;20401;-45
2022/07/21 04:37:35;;;;;;;10.02;6.55;;;20.80;99.90;;;;;;5052821;28;20033;-47
2022/07/21 04:40:01;;;;;;;8.90;6.35;;;20.90;99.90;;;;;;5053188;28;20025;-47
2022/07/21 04:42:26;;;;;;;7.03;5.82;;;21.00;99.90;;;;;;5053152;28;20044;-45
2022/07/21 04:44:52;;;;;;;7.18;5.53;;;21.10;99.90;;;;;;5053071;28;20025;-46
2022/07/21 04:47:18;;;;;;;7.10;6.38;;;21.20;99.90;;;;;;5052560;28;20067;-45
2022/07/21 04:49:43;;;;;;;7.03;6.25;;;21.20;99.90;;;;;;5052995;28;20048;-49
2022/07/21 04:52:09;;;;;;;5.88;5.38;;;21.20;99.90;;;;;;5035710;28;20116;-49
2022/07/21 04:54:34;;;;;;;5.75;5.25;;;21.30;99.90;;;;;;5052882;28;20048;-46
2022/07/21 04:57:02;;;;;;;6.82;5.32;;;21.50;99.90;;;;;;5052218;28;20021;-48
2022/07/21 04:59:29;;;;;;;8.27;6.00;;;21.90;99.90;;;;;;5052963;28;20148;-48
2022/07/21 05:01:54;;;;;;;6.75;6.20;;;22.20;99.90;;;;;;5052769;28;20519;-46
2022/07/21 05:04:20;;;;;;;6.30;5.63;;;22.30;99.90;;;;;;5052653;28;20033;-48
2022/07/21 05:06:45;;;;;;;11.23;5.30;;;22.70;99.90;;;;;;5051753;28;20022;-41
2022/07/21 05:09:11;;;;;;;6.20;5.18;;;23.20;99.90;;;;;;5048983;28;20099;-49
2022/07/21 05:11:36;;;;;;;6.25;5.50;;;24.00;99.90;;;;;;5041833;28;20509;-46
2022/07/21 05:14:02;;;;;;;6.30;4.93;;;24.60;99.90;;;;;;5032339;28;20038;-47
2022/07/21 05:16:28;;;;;;;6.22;5.15;;;25.40;99.90;;;;;;5044825;28;20198;-44
2022/07/21 05:18:54;;;;;;;6.63;5.38;;;26.40;99.90;;;;;;5046717;28;20091;-47
2022/07/21 05:21:19;;;;;;;5.55;5.05;;;27.00;99.90;;;;;;5052817;28;20059;-46
2022/07/21 05:23:45;;;;;;;6.50;5.22;;;27.60;99.90;;;;;;5050317;28;20040;-48
2022/07/21 05:26:12;;;;;;;5.20;4.40;;;28.00;99.10;;;;;;5034412;28;20059;-51
2022/07/21 05:28:37;;;;;;;5.53;4.95;;;27.90;98.80;;;;;;5046795;28;20024;-45
2022/07/21 05:31:03;;;;;;;6.63;4.88;;;27.70;98.40;;;;;;5032358;28;20460;-48
2022/07/21 05:33:29;;;;;;;6.32;4.93;;;27.30;99.10;;;;;;5032405;28;20033;-44
2022/07/21 05:35:54;;;;;;;8.05;5.10;;;26.70;99.80;;;;;;5032332;28;20029;-45
2022/07/21 05:38:20;;;;;;;7.65;5.50;;;25.90;99.90;;;;;;5031577;28;20033;-50
2022/07/21 05:40:45;;;;;;;5.63;5.10;;;25.00;99.90;;;;;;5036681;28;20116;-52
2022/07/21 05:43:11;;;;;;;8.45;5.55;;;24.50;99.90;;;;;;5046337;28;20029;-49
2022/07/21 05:45:36;;;;;;;6.35;5.57;;;23.70;99.90;;;;;;5051930;28;20025;-45
2022/07/21 05:48:02;;;;;;;6.43;5.60;;;23.40;99.90;;;;;;5051544;28;20404;-50
2022/07/21 05:50:27;;;;;;;6.78;5.90;;;23.10;99.90;;;;;;5050722;28;20029;-49
2022/07/21 05:52:53;;;;;;;6.20;5.40;;;22.90;99.90;;;;;;5034107;28;20028;-47
2022/07/21 05:55:18;;;;;;;7.15;5.82;;;22.80;99.90;;;;;;5052273;28;20086;-47
2022/07/21 05:57:44;;;;;;;7.00;6.30;;;22.60;99.90;;;;;;5050429;28;20029;-48
2022/07/21 06:00:10;;;;;;;8.32;6.18;;;22.50;99.90;;;;;;5047413;28;20416;-49
2022/07/21 06:02:35;;;;;;;6.40;5.53;;;22.40;99.90;;;;;;5050833;28;20056;-62
2022/07/21 06:05:01;;;;;;;8.68;5.50;;;22.50;99.90;;;;;;5051388;28;20120;-48
2022/07/21 06:07:27;;;;;;;5.60;5.10;;;22.80;99.90;;;;;;5050738;28;20029;-47
2022/07/21 06:09:52;;;;;;;6.72;6.05;;;23.10;99.90;;;;;;5051453;28;20024;-50
2022/07/21 06:12:18;;;;;;;9.95;6.07;;;23.50;99.90;;;;;;5051396;28;20416;-49
2022/07/21 06:17:09;;;;;;;6.20;4.95;;;25.90;99.90;;;;;;4985789;22;20070;-51
2022/07/21 06:19:34;;;;;;;4.95;4.53;;;26.90;99.90;;;;;;4970637;28;20279;-50
2022/07/21 06:22:02;;;;;;;7.55;5.38;;;27.60;99.30;;;;;;4970231;28;20509;-56
2022/07/21 06:24:28;;;;;;;5.63;5.22;;;27.80;98.70;;;;;;4970215;28;20035;-51
2022/07/21 06:26:56;;;;;;;6.47;4.72;;;27.30;97.90;;;;;;5060930;28;20042;-52
2022/07/21 06:29:23;;;;;;;7.60;5.05;;;26.90;98.80;;;;;;5072311;28;20392;-56
2022/07/21 06:31:48;;;;;;;5.63;5.10;;;26.90;98.60;;;;;;5071661;28;20109;-53
2022/07/21 06:34:14;;;;;;;7.47;5.03;;;26.90;98.40;;;;;;5071534;28;20626;-56
2022/07/21 06:36:40;;;;;;;6.75;5.35;;;27.40;99.00;;;;;;5070092;28;20024;-52
2022/07/21 06:39:05;;;;;;;5.25;4.72;;;28.50;97.30;;;;;;5069602;28;20025;-53
2022/07/21 06:41:31;;;;;;;7.75;4.72;;;29.30;96.40;;;;;;5071502;28;20106;-55
2022/07/21 06:43:57;;;;;;;6.80;5.18;;;30.40;94.50;;;;;;5071244;28;20036;-55
2022/07/21 06:46:22;;;;;;;6.10;4.13;;;31.10;92.70;;;;;;5071306;28;20055;-53
2022/07/21 06:48:48;;;;;;;5.53;4.20;;;31.90;91.90;;;;;;5075045;28;20021;-48
2022/07/21 06:51:13;;;;;;;9.20;4.38;;;32.80;89.70;;;;;;5072404;28;20086;-50
2022/07/21 06:53:39;;;;;;;6.13;4.72;;;33.30;87.10;;;;;;5072949;28;20131;-50
2022/07/21 06:56:05;;;;;;;5.35;4.50;;;32.70;86.60;;;;;;5072950;28;20032;-50
2022/07/21 06:58:32;;;;;;;4.53;4.22;;;32.40;87.00;;;;;;5078319;28;20012;-46
2022/07/21 07:00:58;;;;;;;5.10;4.18;;;32.00;85.90;;;;;;5090777;28;20032;-49
2022/07/21 07:03:23;;;;;;;5.75;3.90;;;31.50;86.90;;;;;;5089880;28;20029;-50
2022/07/21 07:05:50;;;;;;;5.30;4.05;;;31.50;88.40;;;;;;5089964;28;20031;-45
2022/07/21 07:08:16;;;;;;;6.97;4.20;;;32.10;87.20;;;;;;5087676;28;20036;-49
2022/07/21 07:10:43;;;;;;;4.72;4.03;;;32.60;84.20;;;;;;5089043;28;20051;-46
2022/07/21 07:13:10;;;;;;;4.30;3.15;;;31.80;84.80;;;;;;5087412;28;20039;-46
2022/07/21 07:15:36;;;;;;;6.57;3.80;;;30.60;87.80;;;;;;5085297;28;20047;-47
2022/07/21 07:18:02;;;;;;;3.75;3.45;;;29.70;89.80;;;;;;5087348;28;20021;-53
2022/07/21 07:20:27;;;;;;;5.57;4.03;;;29.80;90.30;;;;;;5089965;28;20039;-46
2022/07/21 07:22:53;;;;;;;4.05;3.65;;;30.50;89.10;;;;;;5088617;28;20024;-47
2022/07/21 07:25:19;;;;;;;3.95;3.65;;;31.00;86.60;;;;;;5086823;28;20005;-51
2022/07/21 07:27:47;;;;;;;4.18;3.78;;;31.70;86.20;;;;;;5086034;28;20432;-47
2022/07/21 07:30:13;;;;;;;7.45;3.92;;;32.30;85.20;;;;;;5088926;28;20012;-46
2022/07/21 07:32:40;;;;;;;4.53;3.65;;;31.60;84.00;;;;;;5090190;28;20020;-46
2022/07/21 07:35:07;;;;;;;5.40;3.88;;;31.70;85.20;;;;;;5073827;28;20568;-51
2022/07/21 07:37:35;;;;;;;5.95;3.55;;;32.10;84.40;;;;;;5054528;28;20048;-57
2022/07/21 07:40:02;;;;;;;5.55;3.60;;;32.10;83.40;;;;;;5076557;28;20021;-47
2022/07/21 07:42:27;;;;;;;4.00;3.58;;;32.10;83.10;;;;;;5092930;28;20028;-48
2022/07/21 07:44:53;;;;;;;4.95;2.80;;;32.20;84.20;;;;;;5067189;28;20488;-51
2022/07/21 07:47:19;;;;;;;6.40;3.63;;;31.70;85.50;;;;;;5078711;28;20035;-58
2022/07/21 07:49:44;;;;;;;4.03;3.60;;;31.10;84.60;;;;;;5084532;28;20008;-47
2022/07/21 07:52:10;;;;;;;5.38;3.80;;;30.50;87.40;;;;;;5093388;28;20100;-48
2022/07/21 07:54:36;;;;;;;6.00;3.97;;;29.90;87.90;;;;;;5091147;28;20028;-47
2022/07/21 07:57:02;;;;;;;3.72;3.38;;;29.30;90.10;;;;;;5091644;28;20024;-46
2022/07/21 07:59:28;;;;;;;4.55;3.72;;;29.30;89.30;;;;;;5093771;28;20028;-46
2022/07/21 08:01:53;;;;;;;4.85;3.60;;;29.00;89.70;;;;;;5089915;28;20179;-47
2022/07/21 08:04:22;;;;;;;4.43;3.55;;;28.80;90.40;;;;;;5090708;28;20024;-50
2022/07/21 08:06:47;;;;;;;3.90;3.47;;;28.50;90.20;;;;;;5087000;28;20036;-50
2022/07/21 08:09:14;;;;;;;5.90;3.78;;;27.70;91.50;;;;;;5085470;28;20094;-57
2022/07/21 08:11:39;;;;;;;6.15;4.00;;;27.40;92.30;;;;;;5084016;28;20027;-47
2022/07/21 08:14:05;;;;;;;5.40;3.28;;;28.10;91.60;;;;;;5072823;28;20036;-48
2022/07/21 08:16:31;;;;;;;7.32;3.67;;;29.00;90.60;;;;;;5059781;28;20036;-50
2022/07/21 08:18:56;;;;;;;7.00;3.95;;;28.80;89.90;;;;;;5064267;28;20032;-46
2022/07/21 08:21:24;;;;;;;4.20;3.85;;;28.90;90.40;;;;;;5078423;28;20025;-48
2022/07/21 08:23:50;;;;;;;3.30;3.03;;;29.20;90.50;;;;;;5063912;28;20021;-48
2022/07/21 08:26:18;;;;;;;6.50;4.00;;;30.20;89.00;;;;;;5080421;28;20078;-51
2022/07/21 08:28:44;;;;;;;4.32;3.75;;;30.80;86.30;;;;;;5088383;28;20052;-46
2022/07/21 08:31:09;;;;;;;4.68;3.30;;;30.90;85.50;;;;;;5090385;28;20028;-52
2022/07/21 08:33:35;;;;;;;8.93;4.60;;;31.20;84.30;;;;;;5070675;28;20029;-48
2022/07/21 08:36:01;;;;;;;4.07;3.10;;;31.50;84.80;;;;;;5087738;28;20052;-50
2022/07/21 08:38:27;;;;;;;5.00;3.10;;;31.60;83.60;;;;;;5090004;28;20021;-47
2022/07/21 08:40:52;;;;;;;3.65;3.35;;;31.50;85.70;;;;;;5089027;28;20033;-48
2022/07/21 08:43:18;;;;;;;7.60;3.17;;;30.60;86.00;;;;;;5069166;28;20042;-49
2022/07/21 08:45:44;;;;;;;3.42;3.05;;;30.20;88.60;;;;;;5058001;28;20025;-49
2022/07/21 08:48:10;;;;;;;4.38;3.35;;;30.20;88.50;;;;;;5074980;28;20025;-51
2022/07/21 08:50:39;;;;;;;19.50;14.95;;;30.20;88.60;;;;;;5081924;28;20044;-49
2022/07/21 08:53:05;;;;;;;7.20;4.68;;;30.00;88.30;;;;;;5080432;28;20046;-48
2022/07/21 08:55:33;;;;;;;19.10;15.85;;;29.40;88.60;;;;;;5083350;28;20024;-51
2022/07/21 08:57:58;;;;;;;3.55;2.60;;;28.70;88.90;;;;;;5081428;28;20092;-46
2022/07/21 09:00:25;;;;;;;2.95;2.60;;;28.30;89.50;;;;;;5061819;28;20099;-47
2022/07/21 09:03:08;;;;;;;2.97;2.75;;;28.30;90.50;;;;;;5059441;28;20032;-46
2022/07/21 09:05:34;;;;;;;2.10;2.00;;;28.00;90.70;;;;;;5060383;28;20017;-47
2022/07/21 09:08:00;;;;;;;4.05;2.45;;;28.00;90.10;;;;;;5062372;28;20025;-47
2022/07/21 09:10:28;;;;;;;2.33;2.13;;;28.20;88.60;;;;;;5064931;28;20025;-49
2022/07/21 09:12:58;;;;;;;2.70;2.47;;;28.00;88.80;;;;;;5060292;28;20085;-47
2022/07/21 09:15:27;;;;;;;3.55;3.25;;;27.80;90.20;;;;;;5075094;28;20024;-48
2022/07/21 09:18:08;;;;;;;2.63;2.42;;;27.40;90.40;;;;;;5054674;28;20032;-48
2022/07/21 09:20:35;;;;;;;2.80;2.60;;;27.40;91.00;;;;;;5059063;28;20045;-50
2022/07/21 09:23:06;;;;;;;2.92;2.53;;;27.20;90.70;;;;;;5053837;28;20031;-50
2022/07/21 09:25:37;;;;;;;3.10;2.88;;;26.90;91.20;;;;;;5062421;28;20017;-44
2022/07/21 09:28:18;;;;;;;5.28;2.78;;;27.10;91.30;;;;;;5054146;28;20040;-48
2022/07/21 09:30:52;;;;;;;3.80;3.00;;;27.50;91.10;;;;;;5058850;28;20081;-50
2022/07/21 09:33:26;;;;;;;3.13;2.72;;;27.70;90.40;;;;;;5065226;28;20096;-52
2022/07/21 09:36:13;;;;;;;4.95;2.65;;;27.80;90.30;;;;;;5070210;28;20025;-49
2022/07/21 09:38:43;;;;;;;2.42;2.30;;;28.00;90.10;;;;;;5077601;28;20377;-51
2022/07/21 09:41:14;;;;;;;4.55;2.78;;;28.40;90.00;;;;;;5087734;28;20075;-52
2022/07/21 09:43:51;;;;;;;3.47;2.65;;;28.50;89.30;;;;;;5072612;28;20395;-52
2022/07/21 09:46:20;;;;;;;3.40;3.10;;;28.20;88.70;;;;;;5078830;28;20076;-51
2022/07/21 09:48:48;;;;;;;6.53;5.15;;;28.20;88.80;;;;;;5076704;28;20024;-50
2022/07/21 09:51:30;;;;;;;10.25;8.27;;;28.00;90.00;;;;;;5072640;28;20035;-50
2022/07/21 09:54:08;;;;;;;4.43;3.90;;;27.90;90.50;;;;;;5079511;28;20048;-50
2022/07/21 09:56:45;;;;;;;3.33;3.03;;;27.80;89.90;;;;;;5069056;28;20020;-49
2022/07/21 09:59:12;;;;;;;3.75;3.33;;;27.90;90.10;;;;;;5071427;28;20027;-53
2022/07/21 10:01:38;;;;;;;3.80;3.35;;;27.80;90.30;;;;;;5071783;28;20024;-53
2022/07/21 10:04:05;;;;;;;3.65;3.40;;;27.80;90.70;;;;;;5071464;28;20043;-48
2022/07/21 10:06:35;;;;;;;4.40;3.22;;;28.00;91.10;;;;;;5058942;28;20052;-49
2022/07/21 10:09:03;;;;;;;5.93;3.60;;;28.10;90.80;;;;;;5052151;28;20070;-50
2022/07/21 10:11:29;;;;;;;3.30;3.00;;;28.30;90.30;;;;;;5057561;28;20052;-53
2022/07/21 10:13:55;;;;;;;4.90;3.22;;;28.20;87.90;;;;;;5059807;28;20025;-55
2022/07/21 10:16:21;;;;;;;5.70;3.13;;;28.00;89.50;;;;;;5053365;28;20029;-50
2022/07/21 10:19:07;;;;;;;5.35;3.00;;;27.70;88.30;;;;;;5073487;28;20082;-50
2022/07/21 10:21:55;;;;;;;4.75;3.15;;;27.80;90.00;;;;;;5076187;28;20524;-54
2022/07/21 10:24:27;;;;;;;8.02;3.22;;;27.90;90.70;;;;;;5078979;28;20020;-48
2022/07/21 10:27:05;;;;;;;3.25;2.95;;;28.10;89.90;;;;;;5082351;28;20020;-51
2022/07/21 10:30:00;;;;;;;3.88;2.95;;;28.40;90.60;;;;;;5084632;28;20024;-48
2022/07/21 10:32:38;;;;;;;3.35;3.15;;;28.50;89.70;;;;;;5086154;28;20091;-51
2022/07/21 10:35:31;;;;;;;10.63;3.53;;;28.50;88.30;;;;;;5082138;28;20081;-50
2022/07/21 10:38:00;;;;;;;6.57;3.20;;;28.30;88.50;;;;;;5083617;28;20110;-47
2022/07/21 10:40:26;;;;;;;3.33;2.90;;;28.20;89.00;;;;;;5087543;28;20016;-48
2022/07/21 10:43:01;;;;;;;2.78;2.42;;;28.10;87.60;;;;;;5082792;28;20039;-53
2022/07/21 10:45:32;;;;;;;2.47;2.28;;;28.00;86.10;;;;;;5071325;28;20115;-47
2022/07/21 10:47:59;;;;;;;2.45;2.05;;;28.00;87.10;;;;;;5071273;28;20012;-49
2022/07/21 10:50:34;;;;;;;2.15;2.05;;;27.90;85.60;;;;;;5071772;28;20461;-53
2022/07/21 10:53:05;;;;;;;2.50;2.30;;;27.80;85.90;;;;;;5074015;28;20545;-48
2022/07/21 10:55:47;;;;;;;14.75;10.63;;;27.60;86.10;;;;;;5053397;28;20086;-50
2022/07/21 10:58:25;;;;;;;54.30;38.90;;;27.40;86.10;;;;;;5058256;28;20021;-52
2022/07/21 11:00:55;;;;;;;5.32;2.42;;;27.20;86.10;;;;;;5060263;28;20166;-49
2022/07/21 11:03:25;;;;;;;4.03;2.20;;;27.10;84.80;;;;;;5052256;28;20191;-50
2022/07/21 11:06:05;;;;;;;1.98;1.88;;;27.10;85.70;;;;;;5052890;28;20017;-49
2022/07/21 11:08:32;;;;;;;2.17;1.58;;;27.10;84.90;;;;;;5054424;28;20082;-49
2022/07/21 11:11:10;;;;;;;4.03;2.13;;;27.00;86.00;;;;;;5054384;28;20025;-47
2022/07/21 11:14:00;;;;;;;1.98;1.88;;;27.10;85.70;;;;;;5054615;28;20029;-47
2022/07/21 11:16:46;;;;;;;2.15;2.05;;;27.20;85.70;;;;;;5054752;28;20043;-50
2022/07/21 11:19:40;;;;;;;2.40;2.30;;;27.20;86.60;;;;;;5054317;28;20412;-47
2022/07/21 11:22:23;;;;;;;2.05;1.95;;;27.20;85.90;;;;;;5054189;28;20040;-51
2022/07/21 11:24:51;;;;;;;2.47;1.95;;;27.00;86.20;;;;;;5054661;28;20392;-47
2022/07/21 11:27:22;;;;;;;3.95;2.33;;;26.70;86.80;;;;;;5053634;28;20100;-48
2022/07/21 11:29:49;;;;;;;2.30;2.20;;;26.70;87.30;;;;;;5053068;28;20024;-49
2022/07/21 11:32:17;;;;;;;4.38;2.40;;;26.70;87.70;;;;;;5054111;28;20019;-47
2022/07/21 11:34:56;;;;;;;3.08;2.25;;;26.70;87.60;;;;;;5054684;28;20105;-50
2022/07/21 11:37:38;;;;;;;4.22;2.10;;;26.80;88.30;;;;;;5053483;28;20037;-52
2022/07/21 11:40:08;;;;;;;4.57;2.13;;;26.90;88.70;;;;;;5054116;28;20059;-45
2022/07/21 11:42:34;;;;;;;2.40;2.20;;;27.10;87.20;;;;;;5048482;28;20025;-50
2022/07/21 11:44:59;;;;;;;5.07;2.55;;;27.20;86.90;;;;;;5063357;28;20059;-45
2022/07/21 11:47:25;;;;;;;2.30;1.95;;;27.40;86.70;;;;;;5053507;28;20036;-47
2022/07/21 11:49:56;;;;;;;3.25;2.95;;;27.50;85.70;;;;;;5070069;28;20422;-46
2022/07/21 11:52:27;;;;;;;4.57;2.70;;;27.70;86.00;;;;;;5072905;28;20029;-51
2022/07/21 11:54:54;;;;;;;4.50;2.75;;;27.80;86.20;;;;;;5057381;28;20107;-51
2022/07/21 11:57:21;;;;;;;3.25;2.30;;;27.90;85.90;;;;;;5053936;28;20021;-48
2022/07/21 11:59:49;;;;;;;7.40;2.72;;;27.80;86.60;;;;;;5071055;28;20040;-48
2022/07/21 12:02:18;;;;;;;2.75;2.33;;;27.70;87.10;;;;;;5055827;28;20445;-49
2022/07/21 12:04:52;;;;;;;3.38;2.50;;;27.70;85.90;;;;;;5070952;28;20036;-49
2022/07/21 12:07:29;;;;;;;3.90;2.65;;;27.60;85.80;;;;;;5072882;28;20021;-48
2022/07/21 12:09:57;;;;;;;11.57;10.38;;;27.40;85.90;;;;;;5063470;28;20021;-50
2022/07/21 12:12:29;;;;;;;17.55;13.43;;;27.30;86.70;;;;;;5053763;28;20481;-48
2022/07/21 12:14:55;;;;;;;42.72;29.38;;;27.20;86.80;;;;;;5053456;28;20436;-50
2022/07/21 12:17:36;;;;;;;5.75;3.75;;;27.10;86.00;;;;;;5053589;28;20037;-53
2022/07/21 12:20:03;;;;;;;2.95;2.75;;;27.00;85.60;;;;;;5053667;28;20096;-49
2022/07/21 12:22:37;;;;;;;7.43;3.40;;;27.10;85.80;;;;;;5065567;28;20085;-53
2022/07/21 12:25:05;;;;;;;4.67;3.93;;;27.20;84.80;;;;;;5071236;28;20033;-50
2022/07/21 12:27:32;;;;;;;4.22;3.83;;;27.20;84.20;;;;;;5072028;28;20016;-53
2022/07/21 12:29:57;;;;;;;3.92;3.50;;;27.20;85.40;;;;;;5069272;28;20044;-54
2022/07/21 12:32:47;;;;;;;7.43;3.53;;;27.20;84.50;;;;;;5063223;28;20059;-51
2022/07/21 12:35:25;;;;;;;4.90;4.40;;;27.20;84.50;;;;;;5072734;28;20032;-52
2022/07/21 12:37:52;;;;;;;5.22;4.20;;;27.20;84.20;;;;;;5072538;28;20035;-52
2022/07/21 12:40:19;;;;;;;6.88;3.88;;;27.30;84.40;;;;;;5063022;28;20540;-57
2022/07/21 12:42:45;;;;;;;7.28;4.93;;;27.30;84.60;;;;;;5052715;28;20468;-57
2022/07/21 12:45:19;;;;;;;4.53;4.13;;;27.30;83.70;;;;;;5053007;28;20021;-56
2022/07/21 12:48:12;;;;;;;7.00;4.22;;;27.40;84.20;;;;;;5050814;28;20078;-48
2022/07/21 12:50:39;;;;;;;4.65;3.80;;;27.50;83.20;;;;;;5052596;28;20027;-50